createdAt,value
2023-03-14T00:01:27.857Z,80.40
2023-03-14T00:03:52.689Z,80.40
2023-03-14T00:06:17.814Z,81.10
2023-03-14T00:08:44.349Z,81.60
2023-03-14T00:11:10.257Z,82.20
2023-03-14T00:13:34.671Z,82.70
2023-03-14T00:16:05.206Z,82.80
2023-03-14T00:18:31.113Z,82.60
2023-03-14T00:20:55.419Z,81.70
2023-03-14T00:23:20.113Z,81.30
2023-03-14T00:25:44.514Z,81.20
2023-03-14T00:28:08.943Z,81.00
2023-03-14T00:30:33.379Z,81.90
2023-03-14T00:32:57.899Z,82.80
2023-03-14T00:35:23.639Z,82.30
2023-03-14T00:37:47.962Z,82.70
2023-03-14T00:40:13.258Z,83.40
2023-03-14T00:42:37.758Z,84.40
2023-03-14T00:45:02.086Z,84.70
2023-03-14T00:47:27.475Z,84.40
2023-03-14T00:49:51.795Z,84.20
2023-03-14T00:52:18.478Z,84.50
2023-03-14T00:54:42.937Z,85.20
2023-03-14T00:57:07.367Z,85.70
2023-03-14T00:59:31.868Z,85.60
2023-03-14T01:01:56.410Z,85.50
2023-03-14T01:04:20.838Z,85.00
2023-03-14T01:06:45.175Z,83.90
2023-03-14T01:09:11.103Z,84.00
2023-03-14T01:11:37.048Z,84.40
2023-03-14T01:14:03.116Z,85.40
2023-03-14T01:16:29.126Z,85.40
2023-03-14T01:18:53.727Z,86.30
2023-03-14T01:21:21.731Z,87.00
2023-03-14T01:23:47.250Z,86.30
2023-03-14T01:26:15.162Z,86.90
2023-03-14T01:28:39.660Z,86.90
2023-03-14T01:31:05.908Z,87.50
2023-03-14T01:33:31.485Z,86.60
2023-03-14T01:35:55.878Z,86.60
2023-03-14T01:38:21.453Z,86.50
2023-03-14T01:40:47.493Z,86.40
2023-03-14T01:43:19.808Z,86.40
2023-03-14T01:46:21.663Z,86.90
2023-03-14T01:48:52.722Z,86.80
2023-03-14T01:51:22.404Z,87.50
2023-03-14T01:53:48.232Z,87.50
2023-03-14T01:56:15.366Z,87.50
2023-03-14T01:58:43.626Z,87.00
2023-03-14T02:01:11.067Z,87.20
2023-03-14T02:03:41.150Z,88.20
2023-03-14T02:06:08.738Z,87.90
2023-03-14T02:08:37.699Z,88.00
2023-03-14T02:11:06.241Z,88.00
2023-03-14T02:13:59.770Z,88.10
2023-03-14T02:16:44.603Z,88.30
2023-03-14T02:20:03.008Z,88.30
2023-03-14T02:22:32.490Z,88.40
2023-03-14T02:25:08.885Z,89.40
2023-03-14T02:27:35.874Z,88.80
2023-03-14T02:30:03.186Z,88.60
2023-03-14T02:32:29.791Z,88.50
2023-03-14T02:34:57.809Z,88.70
2023-03-14T02:37:25.808Z,89.50
2023-03-14T02:39:50.605Z,90.10
2023-03-14T02:42:16.387Z,90.30
2023-03-14T02:44:53.359Z,89.80
2023-03-14T02:47:18.785Z,90.20
2023-03-14T02:49:44.422Z,90.30
2023-03-14T02:52:08.782Z,90.20
2023-03-14T02:54:33.162Z,90.10
2023-03-14T02:56:58.482Z,90.20
2023-03-14T02:59:22.867Z,90.70
2023-03-14T03:01:56.071Z,90.60
2023-03-14T03:04:21.732Z,90.90
2023-03-14T03:06:46.034Z,91.40
2023-03-14T03:09:11.171Z,91.30
2023-03-14T03:11:35.561Z,91.60
2023-03-14T03:14:03.380Z,92.00
2023-03-14T03:16:27.798Z,91.90
2023-03-14T03:18:53.598Z,92.30
2023-03-14T03:21:19.965Z,92.90
2023-03-14T03:23:44.415Z,93.30
2023-03-14T03:26:11.340Z,93.60
2023-03-14T03:28:35.822Z,93.70
2023-03-14T03:31:00.953Z,93.90
2023-03-14T03:33:26.709Z,93.90
2023-03-14T03:35:53.612Z,93.80
2023-03-14T03:38:25.528Z,93.90
2023-03-14T03:40:52.113Z,93.80
2023-03-14T03:43:17.281Z,93.80
2023-03-14T03:45:43.459Z,93.50
2023-03-14T03:48:08.277Z,93.30
2023-03-14T03:50:32.628Z,93.20
2023-03-14T03:52:58.837Z,93.30
2023-03-14T03:55:23.333Z,93.30
2023-03-14T03:57:47.949Z,93.30
2023-03-14T04:00:14.045Z,93.40
2023-03-14T04:02:41.271Z,93.40
2023-03-14T04:05:09.533Z,93.50
2023-03-14T04:07:35.622Z,93.40
2023-03-14T04:10:02.208Z,93.60
2023-03-14T04:12:37.750Z,93.70
2023-03-14T04:15:06.681Z,93.80
2023-03-14T04:17:31.339Z,93.90
2023-03-14T04:19:55.787Z,93.90
2023-03-14T04:22:28.040Z,93.80
2023-03-14T04:24:52.544Z,93.50
2023-03-14T04:27:20.357Z,93.40
2023-03-14T04:29:45.763Z,93.20
2023-03-14T04:32:13.542Z,93.20
2023-03-14T04:34:38.250Z,93.00
2023-03-14T04:37:02.837Z,92.40
2023-03-14T04:39:33.433Z,92.00
2023-03-14T04:42:06.895Z,91.30
2023-03-14T04:44:35.878Z,90.70
2023-03-14T04:47:00.387Z,88.20
2023-03-14T04:49:25.498Z,85.40
2023-03-14T04:51:51.931Z,81.90
2023-03-14T04:54:16.777Z,80.10
2023-03-14T04:56:41.473Z,78.90
2023-03-14T04:59:07.038Z,77.70
2023-03-14T05:01:35.650Z,76.00
2023-03-14T05:04:18.089Z,76.40
2023-03-14T05:07:09.572Z,76.50
2023-03-14T05:09:45.172Z,75.10
2023-03-14T05:12:23.877Z,74.00
2023-03-14T05:15:08.405Z,74.90
2023-03-14T05:17:48.018Z,76.60
2023-03-14T05:20:34.181Z,76.10
2023-03-14T05:23:28.073Z,76.20
2023-03-14T05:26:10.987Z,75.50
2023-03-14T05:28:54.175Z,75.80
2023-03-14T05:31:34.243Z,74.90
2023-03-14T05:34:12.471Z,72.80
2023-03-14T05:37:09.437Z,74.20
2023-03-14T05:39:45.107Z,75.40
2023-03-14T05:42:41.496Z,77.50
2023-03-14T05:45:26.152Z,78.20
2023-03-14T05:48:13.468Z,78.20
2023-03-14T05:51:00.461Z,78.40
2023-03-14T05:53:41.717Z,78.70
2023-03-14T05:56:29.268Z,78.30
2023-03-14T05:59:16.401Z,79.90
2023-03-14T06:01:56.769Z,79.20
2023-03-14T06:04:24.788Z,76.50
2023-03-14T06:06:57.067Z,75.20
2023-03-14T06:09:23.979Z,75.30
2023-03-14T06:11:50.310Z,73.80
2023-03-14T06:14:15.102Z,73.70
2023-03-14T06:16:43.860Z,72.60
2023-03-14T06:19:09.464Z,71.90
2023-03-14T06:21:35.408Z,71.50
2023-03-14T06:24:01.492Z,69.50
2023-03-14T06:26:29.572Z,70.40
2023-03-14T06:28:54.790Z,68.00
2023-03-14T06:31:20.152Z,67.30
2023-03-14T06:33:51.008Z,67.90
2023-03-14T06:36:16.578Z,66.90
2023-03-14T06:38:43.792Z,66.90
2023-03-14T06:41:12.848Z,66.20
2023-03-14T06:43:41.179Z,66.30
2023-03-14T06:46:07.319Z,65.80
2023-03-14T06:48:33.957Z,63.20
2023-03-14T06:50:59.282Z,61.90
2023-03-14T06:53:24.356Z,60.90
2023-03-14T06:55:49.416Z,60.90
2023-03-14T06:58:17.226Z,60.60
2023-03-14T07:00:43.498Z,60.70
2023-03-14T07:03:13.427Z,59.90
2023-03-14T07:05:41.818Z,60.00
2023-03-14T07:08:06.760Z,61.40
2023-03-14T07:10:31.665Z,61.20
2023-03-14T07:12:56.237Z,63.20
2023-03-14T07:15:25.732Z,62.90
2023-03-14T07:17:55.295Z,63.70
2023-03-14T07:20:21.694Z,63.00
2023-03-14T07:22:50.113Z,62.00
2023-03-14T07:25:20.366Z,61.80
2023-03-14T07:27:45.839Z,62.60
2023-03-14T07:30:11.682Z,62.80
2023-03-14T07:32:37.961Z,62.40
2023-03-14T07:35:02.694Z,61.90
2023-03-14T07:37:27.872Z,61.10
2023-03-14T07:39:52.542Z,60.80
2023-03-14T07:42:20.598Z,61.90
2023-03-14T07:45:07.963Z,60.60
2023-03-14T07:47:32.485Z,60.50
2023-03-14T07:49:58.424Z,61.20
2023-03-14T07:52:22.917Z,60.80
2023-03-14T07:54:47.369Z,59.70
2023-03-14T07:57:11.880Z,59.30
2023-03-14T07:59:36.297Z,58.90
2023-03-14T08:02:01.030Z,58.10
2023-03-14T08:04:25.480Z,57.90
2023-03-14T08:06:51.363Z,58.80
2023-03-14T08:09:16.541Z,58.00
2023-03-14T08:11:40.928Z,58.10
2023-03-14T08:14:05.374Z,57.80
2023-03-14T08:16:29.851Z,57.50
2023-03-14T08:18:54.677Z,58.40
2023-03-14T08:21:19.447Z,57.90
2023-03-14T08:23:45.370Z,58.00
2023-03-14T08:26:10.024Z,57.90
2023-03-14T08:28:34.443Z,57.20
2023-03-14T08:30:59.423Z,58.00
2023-03-14T08:33:24.130Z,58.10
2023-03-14T08:35:48.818Z,57.90
2023-03-14T08:38:13.590Z,56.60
2023-03-14T08:40:39.818Z,56.90
2023-03-14T08:43:04.502Z,56.20
2023-03-14T08:45:29.156Z,56.10
2023-03-14T08:47:53.582Z,55.20
2023-03-14T08:50:18.208Z,55.20
2023-03-14T08:52:42.737Z,55.80
2023-03-14T08:55:08.199Z,55.70
2023-03-14T08:57:34.128Z,55.10
2023-03-14T08:59:59.165Z,55.30
2023-03-14T09:02:24.030Z,55.00
2023-03-14T09:04:48.570Z,55.30
2023-03-14T09:07:13.132Z,55.90
2023-03-14T09:09:37.600Z,55.60
2023-03-14T09:12:02.092Z,55.90
2023-03-14T09:14:27.971Z,56.10
2023-03-14T09:16:52.776Z,55.00
2023-03-14T09:19:17.747Z,53.10
2023-03-14T09:21:42.216Z,53.60
2023-03-14T09:24:07.325Z,52.60
2023-03-14T09:26:31.714Z,52.00
2023-03-14T09:28:58.551Z,51.80
2023-03-14T09:31:24.482Z,52.20
2023-03-14T09:33:49.312Z,51.60
2023-03-14T09:36:13.921Z,51.80
2023-03-14T09:38:38.348Z,51.40
2023-03-14T09:41:05.210Z,51.60
2023-03-14T09:43:33.856Z,51.30
2023-03-14T09:46:00.461Z,51.40
2023-03-14T09:48:31.954Z,51.40
2023-03-14T09:50:59.081Z,51.40
2023-03-14T10:11:30.917Z,47.10
2023-03-14T10:14:08.422Z,42.70
2023-03-14T10:16:35.022Z,42.40
2023-03-14T10:19:05.774Z,42.70
2023-03-14T10:21:34.376Z,43.40
2023-03-14T10:24:20.720Z,43.10
2023-03-14T10:26:49.823Z,41.40
2023-03-14T10:29:15.125Z,40.70
2023-03-14T10:34:25.473Z,40.00
2023-03-14T10:36:56.089Z,41.80
2023-03-14T10:39:31.191Z,42.10
2023-03-14T10:42:03.898Z,41.30
2023-03-14T10:44:28.506Z,39.90
2023-03-14T10:47:00.340Z,39.20
2023-03-14T10:49:30.904Z,37.00
2023-03-14T10:51:55.324Z,34.90
2023-03-14T10:54:24.826Z,35.50
2023-03-14T10:57:00.500Z,35.70
2023-03-14T10:59:25.021Z,35.60
2023-03-14T11:01:56.562Z,36.50
2023-03-14T11:04:40.241Z,37.20
2023-03-14T11:07:11.901Z,37.70
2023-03-14T11:09:42.298Z,38.30
2023-03-14T11:12:27.417Z,37.60
2023-03-14T11:14:59.965Z,37.90
2023-03-14T11:17:32.251Z,37.90
2023-03-14T11:20:13.239Z,38.00
2023-03-14T11:22:43.306Z,38.60
2023-03-14T11:25:17.695Z,38.30
2023-03-14T11:38:16.822Z,37.90
2023-03-14T11:40:42.753Z,39.50
2023-03-14T11:43:16.092Z,39.50
2023-03-14T11:45:43.326Z,39.00
2023-03-14T11:48:20.064Z,39.30
2023-03-14T11:50:46.286Z,39.40
2023-03-14T11:53:17.958Z,38.90
2023-03-14T11:55:46.081Z,38.30
2023-03-14T11:58:17.768Z,39.00
2023-03-14T12:00:44.091Z,39.20
2023-03-14T12:03:16.958Z,39.60
2023-03-14T12:05:54.843Z,39.30
2023-03-14T12:08:49.775Z,38.80
2023-03-14T12:11:25.832Z,38.70
2023-03-14T12:13:52.350Z,38.70
2023-03-14T12:16:32.163Z,38.80
2023-03-14T12:18:56.672Z,39.10
2023-03-14T12:21:21.863Z,38.40
2023-03-14T12:23:51.665Z,38.40
2023-03-14T12:26:19.064Z,38.30
2023-03-14T12:28:46.549Z,38.20
2023-03-14T12:31:39.901Z,38.20
2023-03-14T12:34:05.762Z,37.60
2023-03-14T12:36:57.629Z,38.00
2023-03-14T12:39:38.132Z,36.80
2023-03-14T12:42:06.561Z,36.80
2023-03-14T12:44:50.664Z,36.30
2023-03-14T12:48:03.660Z,36.60
2023-03-14T12:50:34.221Z,36.40
2023-03-14T12:53:25.810Z,36.40
2023-03-14T12:55:56.521Z,36.50
2023-03-14T12:58:31.768Z,36.40
2023-03-14T13:00:59.344Z,36.90
2023-03-14T13:03:29.042Z,37.10
2023-03-14T13:05:58.961Z,37.10
2023-03-14T13:08:38.354Z,37.20
2023-03-14T13:11:14.357Z,37.20
2023-03-14T13:13:43.062Z,37.00
2023-03-14T13:16:07.811Z,36.60
2023-03-14T13:18:37.829Z,36.80
2023-03-14T13:21:05.585Z,36.90
2023-03-14T13:23:31.972Z,36.70
2023-03-14T13:25:56.636Z,36.90
2023-03-14T13:28:23.540Z,36.80
2023-03-14T13:30:49.529Z,36.70
2023-03-14T13:33:16.980Z,36.90
2023-03-14T13:35:44.599Z,37.00
2023-03-14T13:38:20.632Z,36.70
2023-03-14T13:40:46.491Z,37.10
2023-03-14T13:43:18.436Z,36.20
2023-03-14T13:45:52.862Z,36.00
2023-03-14T13:48:17.875Z,35.70
2023-03-14T13:50:54.099Z,36.10
2023-03-14T13:53:18.620Z,36.10
2023-03-14T13:55:43.210Z,36.00
2023-03-14T13:58:23.188Z,36.10
2023-03-14T14:00:55.656Z,36.60
2023-03-14T14:03:21.523Z,35.90
2023-03-14T14:05:47.404Z,36.20
2023-03-14T14:08:14.050Z,35.90
2023-03-14T14:10:40.022Z,35.60
2023-03-14T14:13:07.964Z,35.70
2023-03-14T14:15:36.033Z,35.70
2023-03-14T14:18:04.097Z,35.70
2023-03-14T14:20:36.087Z,35.60
2023-03-14T14:23:02.626Z,35.50
2023-03-14T14:25:27.055Z,35.50
2023-03-14T14:27:53.180Z,35.70
2023-03-14T14:30:35.616Z,35.80
2023-03-14T14:33:20.448Z,36.30
2023-03-14T14:35:54.107Z,36.20
2023-03-14T14:38:23.247Z,36.50
2023-03-14T14:40:50.303Z,36.10
2023-03-14T14:43:23.166Z,41.40
2023-03-14T14:45:51.419Z,36.20
2023-03-14T14:48:16.356Z,36.20
2023-03-14T14:50:42.245Z,36.20
2023-03-14T14:53:24.581Z,36.20
2023-03-14T14:55:53.450Z,36.20
2023-03-14T14:58:25.078Z,36.60
2023-03-14T15:00:55.537Z,36.60
2023-03-14T15:03:20.185Z,36.90
2023-03-14T15:05:44.719Z,37.00
2023-03-14T15:08:13.085Z,36.70
2023-03-14T15:10:37.523Z,36.80
2023-03-14T15:13:02.031Z,36.80
2023-03-14T15:15:26.483Z,37.20
2023-03-14T15:17:50.971Z,37.50
2023-03-14T15:20:17.410Z,38.20
2023-03-14T15:22:42.030Z,38.00
2023-03-14T15:25:12.998Z,38.50
2023-03-14T15:27:46.020Z,38.70
2023-03-14T15:30:12.938Z,39.20
2023-03-14T15:32:37.439Z,39.60
2023-03-14T15:35:02.035Z,39.70
2023-03-14T15:37:28.530Z,40.00
2023-03-14T15:39:53.167Z,40.30
2023-03-14T15:42:19.074Z,43.30
2023-03-14T15:44:43.775Z,40.50
2023-03-14T15:47:08.836Z,40.90
2023-03-14T15:49:33.843Z,40.90
2023-03-14T15:51:58.400Z,41.30
2023-03-14T15:54:22.956Z,41.40
2023-03-14T15:56:47.716Z,41.70
2023-03-14T15:59:13.840Z,41.70
2023-03-14T16:01:38.450Z,41.80
2023-03-14T16:04:05.151Z,42.00
2023-03-14T16:06:30.016Z,42.30
2023-03-14T16:08:54.745Z,42.70
2023-03-14T16:11:21.614Z,42.70
2023-03-14T16:13:47.118Z,43.10
2023-03-14T16:16:13.601Z,43.40
2023-03-14T16:18:41.775Z,43.60
2023-03-14T16:21:10.552Z,44.00
2023-03-14T16:23:37.608Z,43.70
2023-03-14T16:26:05.403Z,43.50
2023-03-14T16:28:29.899Z,43.90
2023-03-14T16:30:55.312Z,44.30
2023-03-14T16:33:21.247Z,44.50
2023-03-14T16:35:56.445Z,44.30
2023-03-14T16:38:21.125Z,44.50
2023-03-14T16:40:45.960Z,44.50
2023-03-14T16:45:55.346Z,45.10
2023-03-14T16:48:21.905Z,45.50
2023-03-14T16:50:46.576Z,45.50
2023-03-14T16:53:13.877Z,45.60
2023-03-14T16:55:42.503Z,45.60
2023-03-14T16:58:07.150Z,45.50
2023-03-14T17:00:32.022Z,45.30
2023-03-14T17:02:56.748Z,45.50
2023-03-14T17:05:22.621Z,45.50
2023-03-14T17:07:47.197Z,45.30
2023-03-14T17:10:12.768Z,45.60
2023-03-14T17:12:37.265Z,45.90
2023-03-14T17:15:03.787Z,46.10
2023-03-14T17:17:28.481Z,46.40
2023-03-14T17:19:53.696Z,46.60
2023-03-14T17:22:24.019Z,46.60
2023-03-14T17:24:49.855Z,46.80
2023-03-14T17:27:19.938Z,47.30
2023-03-14T17:29:46.939Z,47.60
2023-03-14T17:32:11.378Z,48.10
2023-03-14T17:34:36.421Z,48.40
2023-03-14T17:37:00.824Z,48.70
2023-03-14T17:39:26.940Z,49.00
2023-03-14T17:41:51.525Z,49.30
2023-03-14T17:44:15.981Z,49.60
2023-03-14T17:46:40.642Z,49.80
2023-03-14T17:49:05.298Z,49.80
2023-03-14T17:51:29.688Z,49.90
2023-03-14T17:53:54.340Z,50.10
2023-03-14T17:56:20.571Z,50.10
2023-03-14T17:58:46.599Z,50.50
2023-03-14T18:01:13.141Z,50.50
2023-03-14T18:03:37.677Z,50.60
2023-03-14T18:06:06.489Z,50.70
2023-03-14T18:08:31.448Z,50.80
2023-03-14T18:10:58.908Z,50.70
2023-03-14T18:13:25.848Z,50.60
2023-03-14T18:15:52.411Z,50.40
2023-03-14T18:18:16.877Z,50.30
2023-03-14T18:20:43.538Z,50.10
2023-03-14T18:23:10.502Z,49.90
2023-03-14T18:25:34.953Z,49.90
2023-03-14T18:27:59.403Z,50.00
2023-03-14T18:30:25.195Z,49.50
2023-03-14T18:32:49.686Z,49.50
2023-03-14T18:35:14.121Z,49.40
2023-03-14T18:37:38.717Z,49.30
2023-03-14T18:40:10.538Z,50.10
2023-03-14T18:42:35.036Z,49.40
2023-03-14T18:44:59.408Z,49.20
2023-03-14T18:47:26.986Z,49.10
2023-03-14T18:49:51.447Z,49.50
2023-03-14T18:52:15.919Z,49.50
2023-03-14T18:54:43.976Z,49.40
2023-03-14T18:57:08.539Z,49.80
2023-03-14T18:59:32.992Z,50.00
2023-03-14T19:01:57.470Z,50.20
2023-03-14T19:04:23.316Z,50.90
2023-03-14T19:06:50.744Z,51.90
2023-03-14T19:09:16.670Z,52.50
2023-03-14T19:11:41.265Z,53.40
2023-03-14T19:14:05.635Z,54.00
2023-03-14T19:16:30.906Z,54.80
2023-03-14T19:18:55.935Z,55.30
2023-03-14T19:21:29.885Z,56.00
2023-03-14T19:23:54.932Z,56.60
2023-03-14T19:26:19.418Z,56.60
2023-03-14T19:28:46.038Z,56.70
2023-03-14T19:31:12.248Z,57.20
2023-03-14T19:33:37.626Z,57.60
2023-03-14T19:36:02.645Z,57.70
2023-03-14T19:38:28.680Z,58.00
2023-03-14T19:40:58.342Z,58.20
2023-03-14T19:43:22.814Z,58.40
2023-03-14T19:45:47.390Z,58.50
2023-03-14T19:48:12.817Z,58.60
2023-03-14T19:50:39.665Z,58.70
2023-03-14T19:53:04.849Z,58.90
2023-03-14T19:55:34.797Z,59.00
2023-03-14T19:57:59.895Z,59.10
2023-03-14T20:00:27.502Z,59.10
2023-03-14T20:02:53.221Z,59.40
2023-03-14T20:05:19.567Z,59.80
2023-03-14T20:07:45.481Z,59.80
2023-03-14T20:10:13.119Z,59.80
2023-03-14T20:12:40.089Z,60.40
2023-03-14T20:15:05.460Z,60.40
2023-03-14T20:17:34.036Z,60.60
2023-03-14T20:19:58.614Z,60.50
2023-03-14T20:22:23.230Z,60.60
2023-03-14T20:24:49.662Z,60.80
2023-03-14T20:27:17.601Z,60.70
2023-03-14T20:29:43.857Z,60.60
2023-03-14T20:32:09.682Z,60.60
2023-03-14T20:34:35.498Z,60.70
2023-03-14T20:37:00.068Z,61.10
2023-03-14T20:39:25.078Z,61.00
2023-03-14T20:41:49.638Z,61.30
2023-03-14T20:44:14.461Z,61.50
2023-03-14T20:46:41.075Z,61.60
2023-03-14T20:49:08.896Z,61.90
2023-03-14T20:51:33.429Z,61.90
2023-03-14T20:53:58.148Z,61.90
2023-03-14T20:56:22.660Z,62.00
2023-03-14T20:58:47.189Z,61.90
2023-03-14T21:01:11.820Z,62.00
2023-03-14T21:03:37.932Z,62.60
2023-03-14T21:06:02.309Z,62.60
2023-03-14T21:08:27.506Z,62.50
2023-03-14T21:10:56.373Z,62.80
2023-03-14T21:13:20.823Z,63.30
2023-03-14T21:15:45.539Z,63.40
2023-03-14T21:18:10.573Z,63.50
2023-03-14T21:20:38.502Z,63.60
2023-03-14T21:23:04.497Z,64.00
2023-03-14T21:25:29.671Z,64.70
2023-03-14T21:27:54.054Z,65.00
2023-03-14T21:30:18.861Z,65.20
2023-03-14T21:32:43.540Z,65.10
2023-03-14T21:35:08.663Z,65.20
2023-03-14T21:37:34.817Z,65.60
2023-03-14T21:39:59.312Z,66.20
2023-03-14T21:42:24.708Z,66.60
2023-03-14T21:44:49.190Z,67.00
2023-03-14T21:47:13.653Z,67.00
2023-03-14T21:49:39.190Z,67.70
2023-03-14T21:52:05.085Z,68.20
2023-03-14T21:54:34.052Z,68.30
2023-03-14T21:56:59.759Z,68.30
2023-03-14T21:59:24.345Z,68.30
2023-03-14T22:01:53.733Z,68.50
2023-03-14T22:04:19.723Z,68.40
2023-03-14T22:06:44.664Z,68.40
2023-03-14T22:09:09.526Z,68.80
2023-03-14T22:11:35.448Z,69.10
2023-03-14T22:14:00.016Z,69.90
2023-03-14T22:16:24.607Z,69.30
2023-03-14T22:18:50.822Z,69.10
2023-03-14T22:21:15.782Z,69.30
2023-03-14T22:23:40.455Z,69.40
2023-03-14T22:26:05.252Z,70.00
2023-03-14T22:28:31.276Z,70.60
2023-03-14T22:30:55.876Z,70.60
2023-03-14T22:33:21.348Z,70.90
2023-03-14T22:35:49.471Z,71.20
2023-03-14T22:38:13.971Z,71.50
2023-03-14T22:40:39.778Z,71.80
2023-03-14T22:43:06.458Z,72.00
2023-03-14T22:45:33.090Z,72.70
2023-03-14T22:48:01.167Z,73.70
2023-03-14T22:50:25.974Z,74.10
2023-03-14T22:52:53.102Z,74.20
2023-03-14T22:55:17.899Z,74.50
2023-03-14T22:57:42.822Z,74.80
2023-03-14T23:00:13.103Z,74.90
2023-03-14T23:02:41.254Z,75.40
2023-03-14T23:05:06.402Z,75.30
2023-03-14T23:07:31.039Z,76.20
2023-03-14T23:09:55.518Z,77.30
2023-03-14T23:12:19.973Z,78.40
2023-03-14T23:14:44.511Z,78.30
2023-03-14T23:17:09.464Z,78.40
2023-03-14T23:19:39.630Z,78.40
2023-03-14T23:22:04.339Z,78.60
2023-03-14T23:24:28.812Z,79.20
2023-03-14T23:26:54.283Z,79.70
2023-03-14T23:29:18.717Z,79.90
2023-03-14T23:31:44.298Z,80.00
2023-03-14T23:34:08.923Z,80.20
2023-03-14T23:36:37.381Z,80.20
2023-03-14T23:39:01.900Z,80.60
2023-03-14T23:41:26.601Z,80.30
2023-03-14T23:43:51.182Z,80.30
2023-03-14T23:46:18.388Z,80.10
2023-03-14T23:48:47.156Z,80.30
2023-03-14T23:51:12.698Z,80.60
2023-03-14T23:53:38.593Z,80.30
2023-03-14T23:56:03.997Z,80.20
2023-03-14T23:58:29.007Z,81.00
